Time;durP1;ratioP1;P1;durP2;ratioP2;P2;SDS_P1;SDS_P2;PMS_P1;PMS_P2;Temp;Humidity;BMP_temperature;BMP_pressure;BME280_temperature;BME280_humidity;BME280_pressure;Samples;Min_cycle;Max_cycle;Signal;HPM_P1;HPM_P2
2023/12/27 00:00:50;;;;;;;;;;;8.70;99.90;;;;;;5030571;28;19925;-66
2023/12/27 00:03:17;;;;;;;;;;;8.60;99.90;;;;;;5032177;28;19921;-66
2023/12/27 00:05:45;;;;;;;;;;;8.40;99.90;;;;;;5032195;28;19925;-66
2023/12/27 00:08:13;;;;;;;;;;;8.20;99.90;;;;;;5031276;28;19921;-66
2023/12/27 00:10:41;;;;;;;;;;;8.20;99.90;;;;;;5032290;28;19921;-66
2023/12/27 00:13:10;;;;;;;;;;;8.20;99.90;;;;;;5034923;28;19982;-66
2023/12/27 00:15:38;;;;;;;;;;;8.30;99.90;;;;;;5027342;28;20406;-65
2023/12/27 00:18:06;;;;;;;;;;;8.30;99.90;;;;;;5030452;28;20403;-66
2023/12/27 00:20:34;;;;;;;;;;;8.40;99.90;;;;;;5031865;28;20011;-66
2023/12/27 00:23:02;;;;;;;;;;;8.40;99.90;;;;;;5031965;28;19925;-66
2023/12/27 00:25:29;;;;;;;;;;;8.40;99.90;;;;;;5035161;28;19987;-66
2023/12/27 00:27:57;;;;;;;;;;;8.40;99.90;;;;;;5031235;28;20537;-67
2023/12/27 00:30:26;;;;;;;;;;;8.50;99.90;;;;;;5029710;28;20432;-66
2023/12/27 00:32:53;;;;;;;;;;;8.50;99.90;;;;;;5030711;28;19960;-66
2023/12/27 00:35:21;;;;;;;;;;;8.40;99.90;;;;;;5030444;28;19940;-67
2023/12/27 00:37:49;;;;;;;;;;;8.40;99.90;;;;;;5030936;28;19975;-66
2023/12/27 00:40:17;;;;;;;;;;;8.50;99.90;;;;;;5030134;28;19999;-66
2023/12/27 00:42:46;;;;;;;;;;;8.50;99.90;;;;;;5031036;28;19923;-65
2023/12/27 00:45:14;;;;;;;;;;;8.50;99.90;;;;;;5028417;28;19952;-68
2023/12/27 00:47:46;;;;;;;;;;;8.50;99.90;;;;;;5030386;28;19921;-66
2023/12/27 00:50:14;;;;;;;;;;;8.50;99.90;;;;;;5029927;28;19949;-66
2023/12/27 00:52:42;;;;;;;;;;;8.50;99.90;;;;;;5030501;28;19925;-66
2023/12/27 00:55:10;;;;;;;;;;;8.60;99.90;;;;;;5029762;28;19925;-66
2023/12/27 00:57:37;;;;;;;;;;;8.70;99.90;;;;;;5030698;28;19970;-66
2023/12/27 01:00:06;;;;;;;;;;;8.70;99.90;;;;;;5029291;28;20350;-66
2023/12/27 01:02:35;;;;;;;;;;;8.70;99.90;;;;;;5024172;28;20380;-67
2023/12/27 01:05:04;;;;;;;;;;;8.70;99.90;;;;;;5030290;28;20461;-67
2023/12/27 01:07:33;;;;;;;;;;;8.80;99.90;;;;;;5030345;28;19921;-66
2023/12/27 01:10:00;;;;;;;;;;;8.80;99.90;;;;;;5029971;28;20300;-66
2023/12/27 01:12:28;;;;;;;;;;;8.80;99.90;;;;;;5029896;28;20380;-67
2023/12/27 01:14:56;;;;;;;;;;;8.80;99.90;;;;;;5025530;28;19929;-66
2023/12/27 01:17:24;;;;;;;;;;;8.80;99.90;;;;;;5029817;28;19925;-67
2023/12/27 01:19:51;;;;;;;;;;;8.80;99.90;;;;;;5029694;28;20004;-68
2023/12/27 01:22:20;;;;;;;;;;;8.80;99.90;;;;;;5030261;28;19921;-66
2023/12/27 01:24:47;;;;;;;;;;;8.80;99.90;;;;;;5033934;28;19986;-66
2023/12/27 01:27:15;;;;;;;;;;;8.80;99.90;;;;;;4988687;28;1180892;-66
2023/12/27 01:29:43;;;;;;;;;;;8.80;99.90;;;;;;5029074;28;20011;-67
2023/12/27 01:32:11;;;;;;;;;;;8.80;99.90;;;;;;5030470;28;19967;-67
2023/12/27 01:34:39;;;;;;;;;;;8.70;99.90;;;;;;5030719;28;19921;-67
2023/12/27 01:37:06;;;;;;;;;;;8.50;99.90;;;;;;5030544;28;19925;-67
2023/12/27 01:39:36;;;;;;;;;;;8.50;99.90;;;;;;5030122;28;19975;-66
2023/12/27 01:42:04;;;;;;;;;;;8.50;99.90;;;;;;5030574;28;19921;-66
2023/12/27 01:44:31;;;;;;;;;;;8.50;99.90;;;;;;5029975;28;19995;-66
2023/12/27 01:46:59;;;;;;;;;;;8.50;99.90;;;;;;5030350;28;19979;-66
2023/12/27 01:49:27;;;;;;;;;;;8.40;99.90;;;;;;5030101;28;20776;-65
2023/12/27 01:51:55;;;;;;;;;;;8.50;99.90;;;;;;5030525;28;20313;-66
2023/12/27 01:54:23;;;;;;;;;;;8.60;99.90;;;;;;5030401;28;19929;-65
2023/12/27 01:56:52;;;;;;;;;;;8.60;99.90;;;;;;5030579;28;19968;-66
2023/12/27 01:59:20;;;;;;;;;;;8.60;99.90;;;;;;5027371;28;19956;-66
2023/12/27 02:01:48;;;;;;;;;;;8.60;99.90;;;;;;5028847;28;20396;-66
2023/12/27 02:04:15;;;;;;;;;;;8.60;99.90;;;;;;5023968;28;19921;-66
2023/12/27 02:06:43;;;;;;;;;;;8.50;99.90;;;;;;5031534;28;19921;-66
2023/12/27 02:09:11;;;;;;;;;;;8.50;99.90;;;;;;5033976;28;19960;-65
2023/12/27 02:11:39;;;;;;;;;;;8.60;99.90;;;;;;5026120;28;20007;-66
2023/12/27 02:14:08;;;;;;;;;;;8.70;99.90;;;;;;5034522;28;19928;-66
2023/12/27 02:16:36;;;;;;;;;;;8.70;99.90;;;;;;5034409;28;19925;-66
2023/12/27 02:19:05;;;;;;;;;;;8.70;99.90;;;;;;5029928;28;19955;-66
2023/12/27 02:21:33;;;;;;;;;;;8.50;99.90;;;;;;5034000;28;20317;-66
2023/12/27 02:24:02;;;;;;;;;;;8.30;99.90;;;;;;5034408;28;19967;-66
2023/12/27 02:26:32;;;;;;;;;;;8.30;99.90;;;;;;5034242;28;19975;-66
2023/12/27 02:29:00;;;;;;;;;;;8.20;99.90;;;;;;5033659;28;19921;-66
2023/12/27 02:31:28;;;;;;;;;;;8.10;99.90;;;;;;5033758;28;19925;-66
2023/12/27 02:33:56;;;;;;;;;;;8.10;99.90;;;;;;5033811;28;19928;-66
2023/12/27 02:36:24;;;;;;;;;;;8.10;99.90;;;;;;5031999;28;19944;-67
2023/12/27 02:38:52;;;;;;;;;;;8.20;99.90;;;;;;5032566;28;19941;-67
2023/12/27 02:41:20;;;;;;;;;;;8.30;99.90;;;;;;5031345;28;20208;-65
2023/12/27 02:43:49;;;;;;;;;;;8.30;99.90;;;;;;5033928;28;20339;-65
2023/12/27 02:46:16;;;;;;;;;;;8.30;99.90;;;;;;5033511;28;19921;-66
2023/12/27 02:48:44;;;;;;;;;;;8.40;99.90;;;;;;5028568;28;19959;-66
2023/12/27 02:51:12;;;;;;;;;;;8.40;99.90;;;;;;5033742;28;19928;-66
2023/12/27 02:53:40;;;;;;;;;;;8.40;99.90;;;;;;5028595;28;19921;-66
2023/12/27 02:56:09;;;;;;;;;;;8.40;99.90;;;;;;5027856;28;19971;-66
2023/12/27 02:58:38;;;;;;;;;;;8.40;99.90;;;;;;5032843;28;20340;-66
2023/12/27 03:01:08;;;;;;;;;;;8.40;99.90;;;;;;5034050;28;19921;-66
2023/12/27 03:03:35;;;;;;;;;;;8.50;99.90;;;;;;5033469;28;19921;-65
2023/12/27 03:06:03;;;;;;;;;;;8.60;99.90;;;;;;5033323;28;19921;-65
2023/12/27 03:08:31;;;;;;;;;;;8.60;99.90;;;;;;5033164;28;19964;-65
2023/12/27 03:10:59;;;;;;;;;;;8.60;99.90;;;;;;5029548;28;19947;-65
2023/12/27 03:13:27;;;;;;;;;;;8.60;99.90;;;;;;5033090;28;19925;-66
2023/12/27 03:15:54;;;;;;;;;;;8.60;99.90;;;;;;5033365;28;19925;-66
2023/12/27 03:18:23;;;;;;;;;;;8.60;99.90;;;;;;5031822;28;20052;-66
2023/12/27 03:20:51;;;;;;;;;;;8.50;99.90;;;;;;5033207;28;19921;-65
2023/12/27 03:23:19;;;;;;;;;;;8.50;99.90;;;;;;5028422;28;19975;-66
2023/12/27 03:25:47;;;;;;;;;;;8.60;99.90;;;;;;5032946;28;19928;-66
2023/12/27 03:28:15;;;;;;;;;;;8.50;99.90;;;;;;5030566;28;19921;-66
2023/12/27 03:30:42;;;;;;;;;;;8.50;99.90;;;;;;5032894;28;19935;-65
2023/12/27 03:33:10;;;;;;;;;;;8.50;99.90;;;;;;5032551;28;20380;-65
2023/12/27 03:35:40;;;;;;;;;;;8.40;99.90;;;;;;5032729;28;19968;-65
2023/12/27 03:38:08;;;;;;;;;;;8.40;99.90;;;;;;5032382;28;19975;-65
2023/12/27 03:40:36;;;;;;;;;;;8.50;99.90;;;;;;5032827;28;19944;-65
2023/12/27 03:43:03;;;;;;;;;;;8.60;99.90;;;;;;5032553;28;19928;-66
2023/12/27 03:45:31;;;;;;;;;;;8.50;99.90;;;;;;5031363;28;19921;-65
2023/12/27 03:47:59;;;;;;;;;;;8.50;99.90;;;;;;5032142;28;20019;-65
2023/12/27 03:50:28;;;;;;;;;;;8.40;99.90;;;;;;5032244;28;20344;-67
2023/12/27 03:52:57;;;;;;;;;;;8.40;99.90;;;;;;5032479;28;19928;-67
2023/12/27 03:55:25;;;;;;;;;;;8.50;99.90;;;;;;5032564;28;19987;-65
2023/12/27 03:57:53;;;;;;;;;;;8.60;99.90;;;;;;5032615;28;19921;-66
2023/12/27 04:00:21;;;;;;;;;;;8.60;99.90;;;;;;5032010;28;20388;-66
2023/12/27 04:02:49;;;;;;;;;;;8.70;99.90;;;;;;5029836;28;19996;-66
2023/12/27 04:05:17;;;;;;;;;;;8.80;99.90;;;;;;5032132;28;19925;-66
2023/12/27 04:07:45;;;;;;;;;;;8.80;99.90;;;;;;5030850;28;19935;-66
2023/12/27 04:10:14;;;;;;;;;;;8.80;99.90;;;;;;5031903;28;20435;-66
2023/12/27 04:12:41;;;;;;;;;;;8.80;99.90;;;;;;5032055;28;20388;-65
2023/12/27 04:15:09;;;;;;;;;;;8.80;99.90;;;;;;5031722;28;19921;-65
2023/12/27 04:17:37;;;;;;;;;;;8.80;99.90;;;;;;5031698;28;19956;-66
2023/12/27 04:20:06;;;;;;;;;;;8.80;99.90;;;;;;5029277;28;19983;-67
2023/12/27 04:22:33;;;;;;;;;;;8.90;99.90;;;;;;5029458;28;19928;-67
2023/12/27 04:25:03;;;;;;;;;;;8.90;99.90;;;;;;5031968;28;19925;-67
2023/12/27 04:27:32;;;;;;;;;;;8.90;99.90;;;;;;5031783;28;19927;-67
2023/12/27 04:30:00;;;;;;;;;;;8.80;99.90;;;;;;5030749;28;20319;-68
2023/12/27 04:32:28;;;;;;;;;;;8.50;99.90;;;;;;5032099;28;19921;-67
2023/12/27 04:34:55;;;;;;;;;;;8.40;99.90;;;;;;5031645;28;19972;-67
2023/12/27 04:37:23;;;;;;;;;;;8.40;99.90;;;;;;5030709;28;20372;-67
2023/12/27 04:39:51;;;;;;;;;;;8.40;99.90;;;;;;5031563;28;20012;-67
2023/12/27 04:42:19;;;;;;;;;;;8.50;99.90;;;;;;5032002;28;19924;-67
2023/12/27 04:44:48;;;;;;;;;;;8.50;99.90;;;;;;5031579;28;19928;-67
2023/12/27 04:47:16;;;;;;;;;;;8.60;99.90;;;;;;5031429;28;19920;-67
2023/12/27 04:49:44;;;;;;;;;;;8.70;99.90;;;;;;5030810;28;19921;-67
2023/12/27 04:52:12;;;;;;;;;;;8.80;99.90;;;;;;5031531;28;19921;-67
2023/12/27 04:54:40;;;;;;;;;;;8.70;99.90;;;;;;5030693;28;19921;-67
2023/12/27 04:57:07;;;;;;;;;;;8.60;99.90;;;;;;5031178;28;19990;-69
2023/12/27 04:59:35;;;;;;;;;;;8.70;99.90;;;;;;5030525;28;19925;-67
2023/12/27 05:02:04;;;;;;;;;;;8.80;99.90;;;;;;5031489;28;20101;-67
2023/12/27 05:04:32;;;;;;;;;;;8.80;99.90;;;;;;5031140;28;19975;-67
2023/12/27 05:07:00;;;;;;;;;;;8.90;99.90;;;;;;5030945;28;19936;-67
2023/12/27 05:09:27;;;;;;;;;;;8.90;99.90;;;;;;5030712;28;20296;-69
2023/12/27 05:11:55;;;;;;;;;;;9.00;99.90;;;;;;5021030;28;19924;-67
2023/12/27 05:14:23;;;;;;;;;;;9.00;99.90;;;;;;5031317;28;19932;-67
2023/12/27 05:16:54;;;;;;;;;;;9.10;99.90;;;;;;5030926;28;19928;-67
2023/12/27 05:19:24;;;;;;;;;;;9.10;99.90;;;;;;5025741;28;20395;-67
2023/12/27 05:21:52;;;;;;;;;;;9.10;99.90;;;;;;5030808;28;20300;-67
2023/12/27 05:24:20;;;;;;;;;;;9.20;99.90;;;;;;5031009;28;19944;-67
2023/12/27 05:26:47;;;;;;;;;;;9.30;99.90;;;;;;5030579;28;19932;-67
2023/12/27 05:29:15;;;;;;;;;;;9.30;99.90;;;;;;5028537;28;20483;-68
2023/12/27 05:31:43;;;;;;;;;;;9.30;99.90;;;;;;5030785;28;19925;-68
2023/12/27 05:34:11;;;;;;;;;;;9.20;99.90;;;;;;5030569;28;20351;-67
2023/12/27 05:36:40;;;;;;;;;;;9.30;99.90;;;;;;5030669;28;19928;-67
2023/12/27 05:39:08;;;;;;;;;;;9.30;99.90;;;;;;5030482;28;19944;-66
2023/12/27 05:41:36;;;;;;;;;;;9.40;99.90;;;;;;5030326;28;20414;-66
2023/12/27 05:44:04;;;;;;;;;;;9.30;99.90;;;;;;5030897;28;19921;-66
2023/12/27 05:46:33;;;;;;;;;;;9.30;99.90;;;;;;5029700;28;20374;-66
2023/12/27 05:49:00;;;;;;;;;;;9.30;99.90;;;;;;5027431;28;19971;-65
2023/12/27 05:51:28;;;;;;;;;;;9.20;99.90;;;;;;5030667;28;19971;-65
2023/12/27 05:53:57;;;;;;;;;;;9.20;99.90;;;;;;5030465;28;19921;-65
2023/12/27 05:56:25;;;;;;;;;;;9.30;99.90;;;;;;5030548;28;20406;-65
2023/12/27 05:58:53;;;;;;;;;;;9.30;99.90;;;;;;5030076;28;19928;-66
2023/12/27 06:01:20;;;;;;;;;;;9.30;99.90;;;;;;5030424;28;19921;-66
2023/12/27 06:03:48;;;;;;;;;;;9.30;99.90;;;;;;5028225;28;20181;-67
2023/12/27 06:06:16;;;;;;;;;;;9.30;99.90;;;;;;5024282;28;20007;-65
2023/12/27 06:08:44;;;;;;;;;;;9.10;99.90;;;;;;5029846;28;20355;-66
2023/12/27 06:11:13;;;;;;;;;;;9.20;99.90;;;;;;5030490;28;19932;-66
2023/12/27 06:13:41;;;;;;;;;;;9.20;99.90;;;;;;5029998;28;19925;-67
2023/12/27 06:16:10;;;;;;;;;;;9.10;99.90;;;;;;5030269;28;19921;-65
2023/12/27 06:18:38;;;;;;;;;;;9.00;99.90;;;;;;5029536;28;20381;-66
2023/12/27 06:21:06;;;;;;;;;;;9.00;99.90;;;;;;5028470;28;19982;-66
2023/12/27 06:23:33;;;;;;;;;;;9.10;99.90;;;;;;5030619;28;19921;-67
2023/12/27 06:26:01;;;;;;;;;;;9.20;99.90;;;;;;5030378;28;19921;-65
2023/12/27 06:28:30;;;;;;;;;;;9.20;99.90;;;;;;5029730;28;20430;-65
2023/12/27 06:30:58;;;;;;;;;;;9.20;99.90;;;;;;5030307;28;19935;-66
2023/12/27 06:33:26;;;;;;;;;;;9.30;99.90;;;;;;5030449;28;19920;-66
2023/12/27 06:35:54;;;;;;;;;;;9.30;99.90;;;;;;5029974;28;19921;-66
2023/12/27 06:38:22;;;;;;;;;;;9.30;99.90;;;;;;5027779;28;19920;-65
2023/12/27 06:40:50;;;;;;;;;;;9.40;99.90;;;;;;5030085;28;19920;-66
2023/12/27 06:43:17;;;;;;;;;;;9.40;99.90;;;;;;5030073;28;19925;-66
2023/12/27 06:45:46;;;;;;;;;;;9.40;99.90;;;;;;5029766;28;20342;-66
2023/12/27 06:48:14;;;;;;;;;;;9.40;99.90;;;;;;5029247;28;19928;-67
2023/12/27 06:50:42;;;;;;;;;;;9.40;99.90;;;;;;5029780;28;19983;-65
2023/12/27 06:53:10;;;;;;;;;;;9.50;99.90;;;;;;5031895;28;19925;-66
2023/12/27 06:55:38;;;;;;;;;;;9.50;99.90;;;;;;5027731;28;20319;-66
2023/12/27 06:58:05;;;;;;;;;;;9.50;99.90;;;;;;5031224;28;19921;-67
2023/12/27 07:00:35;;;;;;;;;;;9.60;99.90;;;;;;5033035;28;20355;-66
2023/12/27 07:03:05;;;;;;;;;;;9.60;99.90;;;;;;5033391;28;19921;-66
2023/12/27 07:05:33;;;;;;;;;;;9.70;99.90;;;;;;5033331;28;19925;-65
2023/12/27 07:08:01;;;;;;;;;;;9.70;99.90;;;;;;5032532;28;22952;-65
2023/12/27 07:10:28;;;;;;;;;;;9.60;99.90;;;;;;5033300;28;19921;-64
2023/12/27 07:12:57;;;;;;;;;;;9.60;99.90;;;;;;5026137;28;19921;-65
2023/12/27 07:15:25;;;;;;;;;;;9.50;99.90;;;;;;5033184;28;19921;-64
2023/12/27 07:17:53;;;;;;;;;;;9.40;99.90;;;;;;5027249;28;20015;-65
2023/12/27 07:20:22;;;;;;;;;;;9.30;99.90;;;;;;5026258;28;19921;-64
2023/12/27 07:22:50;;;;;;;;;;;9.20;99.90;;;;;;5033430;28;20331;-65
2023/12/27 07:25:18;;;;;;;;;;;9.20;99.90;;;;;;5032683;28;19929;-64
2023/12/27 07:27:46;;;;;;;;;;;9.30;99.90;;;;;;5029556;28;20379;-64
2023/12/27 07:30:14;;;;;;;;;;;9.30;99.90;;;;;;5032425;28;19975;-64
2023/12/27 07:32:42;;;;;;;;;;;9.20;99.90;;;;;;5033298;28;19921;-65
2023/12/27 07:35:10;;;;;;;;;;;9.20;99.90;;;;;;5031457;28;19921;-65
2023/12/27 07:37:40;;;;;;;;;;;9.10;99.90;;;;;;5033076;28;19935;-65
2023/12/27 07:40:09;;;;;;;;;;;9.20;99.90;;;;;;5032140;28;19928;-64
2023/12/27 07:42:36;;;;;;;;;;;9.10;99.90;;;;;;5032924;28;19928;-65
2023/12/27 07:45:05;;;;;;;;;;;9.00;99.90;;;;;;5027326;28;19956;-65
2023/12/27 07:47:33;;;;;;;;;;;8.90;99.90;;;;;;5032898;28;19928;-65
2023/12/27 07:50:00;;;;;;;;;;;8.80;99.90;;;;;;5032100;28;19956;-65
2023/12/27 07:52:28;;;;;;;;;;;8.90;99.90;;;;;;5032943;28;19921;-64
2023/12/27 07:54:58;;;;;;;;;;;8.90;99.90;;;;;;5032463;28;19921;-65
2023/12/27 07:57:26;;;;;;;;;;;8.90;99.90;;;;;;5032433;28;19975;-64
2023/12/27 07:59:57;;;;;;;;;;;8.90;99.90;;;;;;5032022;28;19921;-64
2023/12/27 08:02:25;;;;;;;;;;;8.90;99.90;;;;;;5033239;28;19928;-65
2023/12/27 08:04:52;;;;;;;;;;;8.70;99.90;;;;;;5033201;28;20061;-64
2023/12/27 08:07:20;;;;;;;;;;;8.50;99.90;;;;;;5033772;28;20320;-65
2023/12/27 08:09:48;;;;;;;;;;;8.30;99.90;;;;;;5032393;28;19967;-64
2023/12/27 08:12:17;;;;;;;;;;;8.30;99.90;;;;;;5032591;28;19964;-65
2023/12/27 08:14:45;;;;;;;;;;;8.20;99.90;;;;;;5032415;28;19925;-65
2023/12/27 08:17:13;;;;;;;;;;;8.10;99.90;;;;;;5024585;28;19944;-66
2023/12/27 08:19:40;;;;;;;;;;;8.10;99.90;;;;;;5022834;28;20304;-66
2023/12/27 08:22:08;;;;;;;;;;;8.00;99.90;;;;;;5031028;28;19928;-65
2023/12/27 08:24:36;;;;;;;;;;;8.00;99.90;;;;;;5032256;28;20326;-65
2023/12/27 08:27:04;;;;;;;;;;;7.90;99.90;;;;;;5031394;28;20299;-65
2023/12/27 08:29:35;;;;;;;;;;;7.90;99.90;;;;;;5030950;28;19925;-67
2023/12/27 08:32:06;;;;;;;;;;;7.90;99.90;;;;;;5040715;28;19931;-67
2023/12/27 08:34:33;;;;;;;;;;;8.00;99.90;;;;;;5022606;28;20507;-64
2023/12/27 08:37:02;;;;;;;;;;;8.10;99.90;;;;;;5020726;28;19936;-66
2023/12/27 08:39:30;;;;;;;;;;;8.10;99.90;;;;;;5020498;28;19977;-71
2023/12/27 08:41:57;;;;;;;;;;;8.20;99.90;;;;;;5020728;28;20720;-70
2023/12/27 08:44:25;;;;;;;;;;;8.20;99.90;;;;;;5020255;28;19929;-66
2023/12/27 08:46:54;;;;;;;;;;;8.20;99.90;;;;;;5018851;28;20964;-66
2023/12/27 08:49:24;;;;;;;;;;;8.30;99.90;;;;;;5020161;28;19933;-65
2023/12/27 08:51:52;;;;;;;;;;;8.30;99.90;;;;;;5019349;28;20506;-65
2023/12/27 08:54:20;;;;;;;;;;;8.20;99.90;;;;;;5020561;28;19929;-70
2023/12/27 08:56:48;;;;;;;;;;;8.10;99.90;;;;;;5019445;28;19933;-66
2023/12/27 08:59:16;;;;;;;;;;;8.00;99.90;;;;;;5018753;28;19921;-68
2023/12/27 09:01:43;;;;;;;;;;;7.90;99.90;;;;;;5019668;28;19929;-70
2023/12/27 09:04:12;;;;;;;;;;;7.90;99.90;;;;;;5019871;28;19948;-67
2023/12/27 09:06:40;;;;;;;;;;;7.80;99.90;;;;;;5019818;28;19933;-72
2023/12/27 09:09:11;;;;;;;;;;;7.80;99.90;;;;;;5018748;28;19932;-68
2023/12/27 09:11:38;;;;;;;;;;;7.80;99.90;;;;;;5019759;28;19925;-69
2023/12/27 09:14:10;;;;;;;;;;;7.80;99.90;;;;;;5021199;28;20620;-66
2023/12/27 09:16:38;;;;;;;;;;;7.90;99.90;;;;;;5019296;28;20612;-68
2023/12/27 09:19:06;;;;;;;;;;;7.90;99.90;;;;;;5019136;28;20019;-63
2023/12/27 09:21:42;;;;;;;;;;;7.90;99.90;;;;;;5019705;28;19929;-63
2023/12/27 09:24:10;;;;;;;;;;;8.00;99.90;;;;;;5018129;28;20619;-63
2023/12/27 09:26:38;;;;;;;;;;;8.10;99.90;;;;;;5020445;28;20449;-65
2023/12/27 09:29:09;;;;;;;;;;;8.10;99.90;;;;;;5018901;28;19953;-69
2023/12/27 09:31:36;;;;;;;;;;;8.20;99.90;;;;;;5019237;28;20008;-66
2023/12/27 09:34:04;;;;;;;;;;;8.40;99.90;;;;;;5018700;28;19935;-66
2023/12/27 09:36:32;;;;;;;;;;;8.40;99.90;;;;;;5020132;28;19925;-69
2023/12/27 09:39:02;;;;;;;;;;;8.40;99.90;;;;;;5018393;28;19940;-68
2023/12/27 09:41:30;;;;;;;;;;;8.30;99.90;;;;;;5019954;28;20043;-70
2023/12/27 09:43:58;;;;;;;;;;;8.30;99.90;;;;;;5019621;28;20887;-70
2023/12/27 09:46:27;;;;;;;;;;;8.40;99.90;;;;;;5019743;28;19929;-68
2023/12/27 09:48:55;;;;;;;;;;;8.40;99.90;;;;;;5019453;28;19932;-65
2023/12/27 09:51:23;;;;;;;;;;;8.30;99.90;;;;;;5019012;28;20006;-66
2023/12/27 09:53:52;;;;;;;;;;;8.40;99.90;;;;;;5018558;28;20008;-66
2023/12/27 09:56:22;;;;;;;;;;;8.30;99.90;;;;;;5019438;28;19944;-70
2023/12/27 09:58:51;;;;;;;;;;;8.40;99.90;;;;;;5017703;28;19983;-67
2023/12/27 10:01:23;;;;;;;;;;;8.30;99.90;;;;;;5018251;28;20441;-66
2023/12/27 10:03:55;;;;;;;;;;;8.30;99.90;;;;;;5018478;28;19936;-66
2023/12/27 10:06:26;;;;;;;;;;;8.30;99.90;;;;;;5019365;28;19944;-67
2023/12/27 10:08:55;;;;;;;;;;;8.30;99.90;;;;;;5019126;28;19951;-66
2023/12/27 10:11:25;;;;;;;;;;;8.30;99.90;;;;;;5019399;28;20404;-65
2023/12/27 10:13:53;;;;;;;;;;;8.30;99.90;;;;;;5017925;28;21024;-67
2023/12/27 10:16:21;;;;;;;;;;;8.30;99.90;;;;;;5017659;28;20593;-66
2023/12/27 10:18:48;;;;;;;;;;;8.30;99.90;;;;;;5018859;28;19975;-66
2023/12/27 10:21:18;;;;;;;;;;;8.30;99.90;;;;;;5020149;28;19928;-68
2023/12/27 10:23:46;;;;;;;;;;;8.20;99.90;;;;;;5020018;28;20171;-69
2023/12/27 10:26:14;;;;;;;;;;;8.30;99.90;;;;;;5019864;28;19936;-67
2023/12/27 10:28:44;;;;;;;;;;;8.30;99.90;;;;;;5021600;28;19925;-69
2023/12/27 10:31:12;;;;;;;;;;;8.30;99.90;;;;;;5023963;28;19935;-68
2023/12/27 10:33:40;;;;;;;;;;;8.40;99.90;;;;;;5024321;28;21071;-69
2023/12/27 10:36:08;;;;;;;;;;;8.40;99.90;;;;;;5022886;28;20010;-70
2023/12/27 10:38:36;;;;;;;;;;;8.40;99.90;;;;;;5023905;28;20023;-64
2023/12/27 10:41:06;;;;;;;;;;;8.30;99.90;;;;;;5023292;28;20014;-67
2023/12/27 10:43:34;;;;;;;;;;;8.30;99.90;;;;;;5023248;28;20024;-65
2023/12/27 10:46:09;;;;;;;;;;;8.30;99.90;;;;;;5023244;28;19928;-65
2023/12/27 10:48:38;;;;;;;;;;;8.30;99.90;;;;;;5022929;28;19929;-68
2023/12/27 10:51:07;;;;;;;;;;;8.30;99.90;;;;;;5023040;28;19975;-65
2023/12/27 10:53:35;;;;;;;;;;;8.40;99.90;;;;;;5022938;28;19929;-65
2023/12/27 10:56:03;;;;;;;;;;;8.40;99.90;;;;;;5023521;28;19944;-69
2023/12/27 10:58:32;;;;;;;;;;;8.40;99.90;;;;;;5021791;28;19937;-66
2023/12/27 11:01:00;;;;;;;;;;;8.50;99.90;;;;;;5023998;28;20068;-71
2023/12/27 11:03:29;;;;;;;;;;;8.50;99.90;;;;;;5024249;28;20348;-66
2023/12/27 11:05:59;;;;;;;;;;;8.50;99.90;;;;;;5022864;28;20308;-64
2023/12/27 11:08:28;;;;;;;;;;;8.50;99.90;;;;;;5022364;28;19929;-68
2023/12/27 11:10:57;;;;;;;;;;;8.50;99.90;;;;;;5022718;28;21036;-65
2023/12/27 11:13:26;;;;;;;;;;;8.50;99.90;;;;;;5022270;28;19928;-66
2023/12/27 11:15:56;;;;;;;;;;;8.60;99.90;;;;;;5022355;28;19936;-67
2023/12/27 11:18:25;;;;;;;;;;;8.60;99.90;;;;;;5021686;28;19968;-64
2023/12/27 11:20:56;;;;;;;;;;;8.50;99.90;;;;;;5025318;28;19931;-65
2023/12/27 11:23:25;;;;;;;;;;;8.60;99.90;;;;;;5035101;28;20324;-67
2023/12/27 11:25:54;;;;;;;;;;;8.60;99.90;;;;;;5019634;28;19933;-65
2023/12/27 11:28:23;;;;;;;;;;;8.70;99.90;;;;;;5037842;28;19939;-65
2023/12/27 11:30:51;;;;;;;;;;;8.70;99.90;;;;;;5040659;28;20384;-68
2023/12/27 11:33:21;;;;;;;;;;;8.70;99.90;;;;;;5039784;28;19921;-65
2023/12/27 11:35:49;;;;;;;;;;;8.80;99.90;;;;;;5039543;28;19925;-65
2023/12/27 11:38:20;;;;;;;;;;;8.80;99.90;;;;;;5036659;28;19928;-68
2023/12/27 11:40:48;;;;;;;;;;;8.80;99.90;;;;;;5038079;28;19956;-66
2023/12/27 11:43:20;;;;;;;;;;;8.80;99.90;;;;;;5033486;28;19921;-66
2023/12/27 11:45:58;;;;;;;;;;;8.80;99.90;;;;;;5032413;28;20692;-68
2023/12/27 11:48:27;;;;;;;;;;;8.90;99.90;;;;;;5031878;28;20380;-65
2023/12/27 11:50:56;;;;;;;;;;;9.10;99.90;;;;;;5032806;28;19925;-64
2023/12/27 11:53:27;;;;;;;;;;;9.60;99.90;;;;;;5033265;28;19925;-68
2023/12/27 11:55:58;;;;;;;;;;;9.80;99.90;;;;;;5035035;28;19925;-65
2023/12/27 11:58:33;;;;;;;;;;;9.80;99.90;;;;;;5032336;28;19921;-66
2023/12/27 12:01:20;;;;;;;;;;;9.80;99.90;;;;;;5038010;28;19979;-66
2023/12/27 12:03:51;;;;;;;;;;;9.80;99.90;;;;;;5030850;28;19921;-66
2023/12/27 12:06:27;;;;;;;;;;;10.10;99.90;;;;;;5031956;28;19921;-66
2023/12/27 12:08:59;;;;;;;;;;;10.00;99.90;;;;;;5031723;28;19952;-65
2023/12/27 12:11:27;;;;;;;;;;;10.00;99.90;;;;;;5023937;28;19964;-65
2023/12/27 12:13:55;;;;;;;;;;;10.10;99.90;;;;;;5039728;28;19921;-67
2023/12/27 12:16:23;;;;;;;;;;;10.00;99.90;;;;;;5035528;28;19925;-65
2023/12/27 12:18:51;;;;;;;;;;;10.10;99.90;;;;;;5041907;28;20485;-65
2023/12/27 12:21:19;;;;;;;;;;;10.00;99.90;;;;;;5034296;28;19925;-66
2023/12/27 12:23:47;;;;;;;;;;;10.00;99.90;;;;;;5033206;28;19921;-66
2023/12/27 12:26:17;;;;;;;;;;;9.90;99.90;;;;;;5033703;28;19925;-65
2023/12/27 12:28:53;;;;;;;;;;;9.70;99.90;;;;;;5029057;28;19969;-65
2023/12/27 12:31:21;;;;;;;;;;;9.70;99.90;;;;;;5027023;28;20396;-65
2023/12/27 12:33:49;;;;;;;;;;;9.60;99.90;;;;;;5031888;28;19928;-65
2023/12/27 12:36:17;;;;;;;;;;;9.40;99.90;;;;;;5031659;28;19921;-65
2023/12/27 12:38:46;;;;;;;;;;;9.40;99.90;;;;;;5031067;28;20426;-65
2023/12/27 12:41:13;;;;;;;;;;;9.30;99.90;;;;;;5031934;28;19928;-72
2023/12/27 12:43:43;;;;;;;;;;;9.20;99.90;;;;;;5023349;28;20277;-65
2023/12/27 12:46:13;;;;;;;;;;;9.10;99.90;;;;;;5027798;28;19931;-68
2023/12/27 12:48:42;;;;;;;;;;;9.00;99.90;;;;;;5023504;28;19929;-67
2023/12/27 12:51:10;;;;;;;;;;;9.10;99.90;;;;;;5029904;28;20438;-65
2023/12/27 12:53:38;;;;;;;;;;;9.10;99.90;;;;;;5031475;28;20384;-65
2023/12/27 12:56:07;;;;;;;;;;;9.10;99.90;;;;;;5031620;28;19921;-65
2023/12/27 12:58:35;;;;;;;;;;;9.10;99.90;;;;;;5022263;28;19959;-69
2023/12/27 13:01:05;;;;;;;;;;;9.10;99.90;;;;;;5030185;28;19925;-68
2023/12/27 13:03:37;;;;;;;;;;;9.10;99.90;;;;;;5031192;28;19929;-65
2023/12/27 13:06:07;;;;;;;;;;;9.00;99.90;;;;;;5031350;28;20466;-68
2023/12/27 13:08:36;;;;;;;;;;;9.00;99.90;;;;;;5030504;28;19928;-65
2023/12/27 13:11:04;;;;;;;;;;;9.00;99.90;;;;;;5031177;28;19930;-65
2023/12/27 13:13:32;;;;;;;;;;;8.90;99.90;;;;;;5029593;28;19968;-65
2023/12/27 13:15:59;;;;;;;;;;;8.90;99.90;;;;;;5025507;28;19951;-68
2023/12/27 13:18:29;;;;;;;;;;;8.90;99.90;;;;;;5030606;28;20388;-65
2023/12/27 13:20:57;;;;;;;;;;;8.90;99.90;;;;;;5031355;28;19925;-68
2023/12/27 13:23:24;;;;;;;;;;;8.90;99.90;;;;;;5031108;28;19975;-68
2023/12/27 13:25:52;;;;;;;;;;;8.90;99.90;;;;;;5031111;28;20347;-65
2023/12/27 13:28:25;;;;;;;;;;;9.00;99.90;;;;;;5029910;28;19921;-72
2023/12/27 13:30:53;;;;;;;;;;;9.00;99.90;;;;;;5028663;28;19921;-65
2023/12/27 13:33:22;;;;;;;;;;;9.00;99.90;;;;;;5030911;28;19928;-65
2023/12/27 13:35:51;;;;;;;;;;;9.00;99.90;;;;;;5030712;28;20010;-64
2023/12/27 13:38:19;;;;;;;;;;;9.00;99.90;;;;;;5030006;28;20396;-69
2023/12/27 13:40:47;;;;;;;;;;;9.00;99.90;;;;;;5030784;28;19925;-64
2023/12/27 13:43:14;;;;;;;;;;;9.00;99.90;;;;;;5030837;28;20518;-66
2023/12/27 13:45:43;;;;;;;;;;;9.00;99.90;;;;;;5021827;28;19925;-68
2023/12/27 13:48:10;;;;;;;;;;;9.00;99.90;;;;;;5031882;28;20289;-65
2023/12/27 13:50:38;;;;;;;;;;;9.00;99.90;;;;;;5031223;28;19928;-65
2023/12/27 13:53:07;;;;;;;;;;;9.00;99.90;;;;;;5030254;28;19925;-66
2023/12/27 13:55:35;;;;;;;;;;;9.00;99.90;;;;;;5022235;28;19925;-65
2023/12/27 13:58:03;;;;;;;;;;;9.00;99.90;;;;;;5029790;28;19925;-65
2023/12/27 14:00:31;;;;;;;;;;;9.00;99.90;;;;;;5029440;28;19921;-66
2023/12/27 14:02:59;;;;;;;;;;;9.00;99.90;;;;;;5034033;28;19928;-65
2023/12/27 14:05:31;;;;;;;;;;;9.00;99.90;;;;;;5034409;28;19979;-67
2023/12/27 14:07:58;;;;;;;;;;;9.00;99.90;;;;;;5034555;28;19927;-64
2023/12/27 14:10:28;;;;;;;;;;;8.90;99.90;;;;;;5034131;28;19979;-69
2023/12/27 14:12:56;;;;;;;;;;;8.90;99.90;;;;;;5034633;28;20434;-64
2023/12/27 14:15:24;;;;;;;;;;;8.80;99.90;;;;;;5028340;28;19968;-65
2023/12/27 14:17:52;;;;;;;;;;;8.80;99.90;;;;;;5034412;28;19971;-65
2023/12/27 14:20:19;;;;;;;;;;;8.80;99.90;;;;;;5033937;28;20312;-67
2023/12/27 14:22:47;;;;;;;;;;;8.80;99.90;;;;;;5038899;28;20269;-65
2023/12/27 14:25:15;;;;;;;;;;;8.80;99.90;;;;;;5034368;28;20049;-65
2023/12/27 14:27:44;;;;;;;;;;;8.70;99.90;;;;;;5033458;28;19925;-66
2023/12/27 14:30:12;;;;;;;;;;;8.70;99.90;;;;;;5029596;28;19970;-66
2023/12/27 14:32:40;;;;;;;;;;;8.60;99.90;;;;;;5033951;28;19921;-63
2023/12/27 14:35:09;;;;;;;;;;;8.60;99.90;;;;;;5034331;28;19921;-66